createdAt,value
2023-05-23T00:02:24.047Z,70.69
2023-05-23T00:07:26.407Z,72.27
2023-05-23T00:12:28.057Z,75.53
2023-05-23T00:17:29.848Z,76.01
2023-05-23T00:22:31.587Z,75.32
2023-05-23T00:27:33.212Z,76.45
2023-05-23T00:32:35.679Z,91.33
2023-05-23T00:37:38.172Z,100.00
2023-05-23T00:42:39.834Z,100.00
2023-05-23T00:47:42.482Z,100.00
2023-05-23T00:52:46.281Z,100.00
2023-05-23T00:57:48.517Z,100.00
2023-05-23T01:02:52.127Z,100.00
2023-05-23T01:07:54.650Z,100.00
2023-05-23T01:13:02.698Z,100.00
2023-05-23T01:18:14.502Z,100.00
2023-05-23T01:23:28.412Z,100.00
2023-05-23T01:28:40.972Z,100.00
2023-05-23T01:33:44.022Z,100.00
2023-05-23T01:38:45.703Z,100.00
2023-05-23T01:43:47.765Z,100.00
2023-05-23T01:48:50.604Z,100.00
2023-05-23T01:53:52.480Z,100.00
2023-05-23T01:58:54.410Z,100.00
2023-05-23T02:03:57.102Z,100.00
2023-05-23T02:08:58.782Z,100.00
2023-05-23T02:14:00.984Z,100.00
2023-05-23T02:19:03.580Z,100.00
2023-05-23T02:24:05.519Z,100.00
2023-05-23T02:29:07.321Z,100.00
2023-05-23T02:34:09.058Z,100.00
2023-05-23T02:39:10.835Z,100.00
2023-05-23T02:44:12.708Z,100.00
2023-05-23T02:49:14.593Z,100.00
2023-05-23T02:54:16.869Z,100.00
2023-05-23T02:59:18.771Z,100.00
2023-05-23T03:04:21.431Z,100.00
2023-05-23T03:09:23.108Z,100.00
2023-05-23T03:14:25.148Z,100.00
2023-05-23T03:19:26.925Z,100.00
2023-05-23T03:24:28.756Z,100.00
2023-05-23T03:29:30.542Z,100.00
2023-05-23T03:34:33.944Z,100.00
2023-05-23T03:39:36.875Z,100.00
2023-05-23T03:44:40.475Z,100.00
2023-05-23T03:49:42.453Z,100.00
2023-05-23T03:54:44.586Z,100.00
2023-05-23T03:59:46.411Z,100.00
2023-05-23T04:04:48.486Z,100.00
2023-05-23T04:09:50.317Z,100.00
2023-05-23T04:14:52.990Z,100.00
2023-05-23T04:19:55.219Z,100.00
2023-05-23T04:24:57.746Z,100.00
2023-05-23T04:30:03.979Z,100.00
2023-05-23T04:35:07.351Z,100.00
2023-05-23T04:40:13.567Z,100.00
2023-05-23T04:45:34.023Z,100.00
2023-05-23T04:50:47.816Z,100.00
2023-05-23T04:55:50.203Z,100.00
2023-05-23T05:00:53.701Z,100.00
2023-05-23T05:05:56.230Z,100.00
2023-05-23T05:10:58.232Z,100.00
2023-05-23T05:16:00.086Z,100.00
2023-05-23T05:21:02.315Z,100.00
2023-05-23T05:26:05.455Z,100.00
2023-05-23T05:31:07.406Z,100.00
2023-05-23T05:36:11.042Z,100.00
2023-05-23T05:41:13.361Z,100.00
2023-05-23T05:46:20.884Z,100.00
2023-05-23T05:51:22.729Z,100.00
2023-05-23T05:56:24.681Z,100.00
2023-05-23T06:01:26.865Z,100.00
2023-05-23T06:06:28.886Z,100.00
2023-05-23T06:11:30.988Z,100.00
2023-05-23T06:16:33.284Z,100.00
2023-05-23T06:21:35.171Z,100.00
2023-05-23T06:26:39.413Z,100.00
2023-05-23T06:31:41.221Z,100.00
2023-05-23T06:36:43.124Z,100.00
2023-05-23T06:41:44.897Z,100.00
2023-05-23T06:46:47.110Z,100.00
2023-05-23T06:51:51.043Z,100.00
2023-05-23T06:56:53.402Z,100.00
2023-05-23T07:01:56.069Z,100.00
2023-05-23T07:06:59.679Z,100.00
2023-05-23T07:12:01.436Z,100.00
2023-05-23T07:17:04.136Z,92.98
2023-05-23T07:22:06.188Z,96.18
2023-05-23T07:27:10.572Z,94.27
2023-05-23T07:32:13.848Z,93.19
2023-05-23T07:37:15.947Z,93.86
2023-05-23T07:42:19.983Z,93.85
2023-05-23T07:47:21.906Z,91.63
2023-05-23T07:52:23.990Z,86.32
2023-05-23T07:57:26.234Z,85.48
2023-05-23T08:02:28.738Z,81.33
2023-05-23T08:07:31.261Z,81.75
2023-05-23T08:12:36.705Z,81.92
2023-05-23T08:17:46.517Z,79.85
2023-05-23T08:22:48.411Z,75.65
2023-05-23T08:27:51.493Z,77.83
2023-05-23T08:33:13.230Z,77.09
2023-05-23T08:38:21.931Z,76.98
2023-05-23T08:43:35.059Z,74.72
2023-05-23T08:48:38.975Z,78.47
2023-05-23T08:53:47.140Z,80.27
2023-05-23T08:58:49.642Z,81.50
2023-05-23T09:03:54.498Z,81.63
2023-05-23T09:09:12.446Z,80.42
2023-05-23T09:14:15.521Z,85.82
2023-05-23T09:19:19.096Z,87.07
2023-05-23T09:24:34.993Z,85.00
2023-05-23T09:29:40.327Z,87.36
2023-05-23T09:34:57.143Z,89.83
2023-05-23T09:40:01.036Z,91.03
2023-05-23T09:45:04.838Z,94.96
2023-05-23T09:50:08.958Z,92.29
2023-05-23T09:55:11.052Z,94.68
2023-05-23T10:00:16.982Z,89.30
2023-05-23T10:05:42.031Z,91.45
2023-05-23T10:11:13.171Z,86.02
2023-05-23T10:16:29.166Z,83.26
2023-05-23T10:21:46.449Z,78.60
2023-05-23T10:26:48.972Z,78.58
2023-05-23T10:31:53.053Z,77.82
2023-05-23T10:37:20.797Z,74.98
2023-05-23T10:42:41.074Z,76.35
2023-05-23T10:47:43.232Z,77.76
2023-05-23T10:52:45.184Z,75.48
2023-05-23T10:57:47.181Z,76.21
2023-05-23T11:03:00.877Z,76.53
2023-05-23T11:08:15.370Z,75.54
2023-05-23T11:13:17.412Z,73.01
2023-05-23T11:18:24.665Z,73.09
2023-05-23T11:23:40.513Z,75.69
2023-05-23T11:28:58.778Z,73.35
2023-05-23T11:34:01.594Z,76.34
2023-05-23T11:39:04.172Z,75.92
2023-05-23T11:44:13.308Z,74.25
2023-05-23T11:49:15.172Z,74.85
2023-05-23T11:54:17.171Z,75.65
2023-05-23T11:59:19.028Z,73.29
2023-05-23T12:04:21.013Z,72.85
2023-05-23T12:09:22.905Z,71.78
2023-05-23T12:14:29.036Z,69.98
2023-05-23T12:19:31.195Z,72.33
2023-05-23T12:24:33.059Z,68.92
2023-05-23T12:29:35.891Z,68.21
2023-05-23T12:34:42.688Z,68.73
2023-05-23T12:39:45.370Z,73.07
2023-05-23T12:44:51.305Z,71.49
2023-05-23T12:49:53.155Z,72.10
2023-05-23T12:54:54.902Z,73.81
2023-05-23T12:59:56.615Z,76.61
2023-05-23T13:04:58.410Z,79.30
2023-05-23T13:10:00.703Z,81.66
2023-05-23T13:15:02.477Z,79.08
2023-05-23T13:20:05.339Z,80.37
2023-05-23T13:25:08.679Z,80.10
2023-05-23T13:30:10.774Z,85.77
2023-05-23T13:35:12.907Z,90.72
2023-05-23T13:40:19.845Z,92.31
2023-05-23T13:45:23.212Z,94.23
2023-05-23T13:50:25.210Z,96.02
2023-05-23T13:55:27.614Z,99.08
2023-05-23T14:00:29.332Z,100.00
2023-05-23T14:05:31.150Z,100.00
2023-05-23T14:10:35.730Z,100.00
2023-05-23T14:15:38.470Z,99.99
2023-05-23T14:20:40.464Z,96.54
2023-05-23T14:25:42.699Z,92.06
2023-05-23T14:30:44.619Z,94.79
2023-05-23T14:35:46.392Z,93.42
2023-05-23T14:40:48.882Z,95.49
2023-05-23T14:45:50.715Z,97.85
2023-05-23T14:50:52.497Z,100.00
2023-05-23T14:55:54.618Z,100.00
2023-05-23T15:00:57.395Z,100.00
2023-05-23T15:06:00.209Z,100.00
2023-05-23T15:11:01.934Z,99.68
2023-05-23T15:16:03.764Z,98.51
2023-05-23T15:21:05.786Z,98.22
2023-05-23T15:26:07.578Z,98.70
2023-05-23T15:31:09.274Z,97.55
2023-05-23T15:36:13.129Z,94.85
2023-05-23T15:41:16.886Z,99.43
2023-05-23T15:46:18.724Z,100.00
2023-05-23T15:51:21.067Z,100.00
2023-05-23T15:56:22.839Z,100.00
2023-05-23T16:01:24.629Z,100.00
2023-05-23T16:06:28.161Z,100.00
2023-05-23T16:11:29.922Z,100.00
2023-05-23T16:16:31.773Z,100.00
2023-05-23T16:21:33.559Z,100.00
2023-05-23T16:26:35.375Z,100.00
2023-05-23T16:31:37.188Z,100.00
2023-05-23T16:36:38.914Z,100.00
2023-05-23T16:41:40.705Z,100.00
2023-05-23T16:46:42.529Z,100.00
2023-05-23T16:51:46.485Z,100.00
2023-05-23T16:56:49.607Z,100.00
2023-05-23T17:01:51.527Z,100.00
2023-05-23T17:06:53.455Z,100.00
2023-05-23T17:11:55.248Z,100.00
2023-05-23T17:16:57.004Z,100.00
2023-05-23T17:21:59.049Z,100.00
2023-05-23T17:27:00.717Z,100.00
2023-05-23T17:32:02.602Z,100.00
2023-05-23T17:37:04.666Z,100.00
2023-05-23T17:42:07.055Z,100.00
2023-05-23T17:47:08.869Z,100.00
2023-05-23T17:52:14.764Z,100.00
2023-05-23T17:57:16.939Z,100.00
2023-05-23T18:02:19.287Z,100.00
2023-05-23T18:07:21.334Z,100.00
2023-05-23T18:12:23.062Z,100.00
2023-05-23T18:17:25.214Z,100.00
2023-05-23T18:22:26.952Z,100.00
2023-05-23T18:27:28.648Z,100.00
2023-05-23T18:32:31.419Z,100.00
2023-05-23T18:37:33.141Z,100.00
2023-05-23T18:42:35.081Z,100.00
2023-05-23T18:47:36.826Z,100.00
2023-05-23T18:52:38.936Z,100.00
2023-05-23T18:57:40.668Z,100.00
2023-05-23T19:02:44.651Z,100.00
2023-05-23T19:07:46.474Z,100.00
2023-05-23T19:12:48.213Z,100.00
2023-05-23T19:17:50.489Z,100.00
2023-05-23T19:22:52.874Z,100.00
2023-05-23T19:27:54.704Z,100.00
2023-05-23T19:32:56.568Z,100.00
2023-05-23T19:37:58.425Z,100.00
2023-05-23T19:43:00.181Z,100.00
2023-05-23T19:48:02.102Z,100.00
2023-05-23T19:53:03.830Z,100.00
2023-05-23T19:58:05.993Z,100.00
2023-05-23T20:03:08.469Z,100.00
2023-05-23T20:08:10.467Z,100.00
2023-05-23T20:13:12.330Z,100.00
2023-05-23T20:18:14.058Z,100.00
2023-05-23T20:23:15.845Z,100.00
2023-05-23T20:28:17.559Z,100.00
2023-05-23T20:33:19.895Z,100.00
2023-05-23T20:38:21.748Z,100.00
2023-05-23T20:43:23.727Z,100.00
2023-05-23T20:48:25.499Z,100.00
2023-05-23T20:53:28.016Z,100.00
2023-05-23T20:58:29.796Z,100.00
2023-05-23T21:03:31.710Z,100.00
2023-05-23T21:08:34.872Z,100.00
2023-05-23T21:13:39.807Z,100.00
2023-05-23T21:18:41.805Z,100.00
2023-05-23T21:23:43.558Z,100.00
2023-05-23T21:28:45.763Z,100.00
2023-05-23T21:33:47.912Z,100.00
2023-05-23T21:38:49.582Z,100.00
2023-05-23T21:43:51.747Z,100.00
2023-05-23T21:48:53.446Z,100.00
2023-05-23T21:53:55.109Z,100.00
2023-05-23T21:59:06.350Z,100.00
2023-05-23T22:04:08.163Z,100.00
2023-05-23T22:09:11.528Z,100.00
2023-05-23T22:14:13.224Z,100.00
2023-05-23T22:19:18.003Z,100.00
2023-05-23T22:24:19.798Z,100.00
2023-05-23T22:29:21.683Z,100.00
2023-05-23T22:34:23.390Z,100.00
2023-05-23T22:39:25.042Z,100.00
2023-05-23T22:44:26.825Z,100.00
2023-05-23T22:49:30.142Z,100.00
2023-05-23T22:54:32.019Z,100.00
2023-05-23T22:59:33.791Z,100.00
2023-05-23T23:04:35.488Z,99.28
2023-05-23T23:09:37.453Z,100.00
2023-05-23T23:14:39.100Z,95.22
2023-05-23T23:19:41.271Z,94.92
2023-05-23T23:24:42.984Z,98.26
2023-05-23T23:29:44.720Z,94.78
2023-05-23T23:34:46.390Z,95.90
2023-05-23T23:39:48.218Z,95.64
2023-05-23T23:44:49.970Z,96.83
2023-05-23T23:49:51.910Z,93.68
2023-05-23T23:54:53.616Z,93.77
2023-05-23T23:59:55.530Z,89.74
